sensor_id;sensor_type;location;lat;lon;timestamp;temperature;humidity
22765;DHT22;11549;50.852;3.816;2023-04-09T00:01:11;8.20;99.90
22765;DHT22;11549;50.852;3.816;2023-04-09T00:03:39;8.10;99.90
22765;DHT22;11549;50.852;3.816;2023-04-09T00:06:07;8.10;99.90
22765;DHT22;11549;50.852;3.816;2023-04-09T00:08:37;8.10;99.90
22765;DHT22;11549;50.852;3.816;2023-04-09T00:11:05;8.10;99.90
22765;DHT22;11549;50.852;3.816;2023-04-09T00:13:34;8.10;99.90
22765;DHT22;11549;50.852;3.816;2023-04-09T00:16:06;8.20;99.90
22765;DHT22;11549;50.852;3.816;2023-04-09T00:18:35;8.20;99.90
22765;DHT22;11549;50.852;3.816;2023-04-09T00:21:03;8.20;99.90
22765;DHT22;11549;50.852;3.816;2023-04-09T00:23:33;8.20;99.90
22765;DHT22;11549;50.852;3.816;2023-04-09T00:26:03;8.20;99.90
22765;DHT22;11549;50.852;3.816;2023-04-09T00:28:31;8.30;99.90
22765;DHT22;11549;50.852;3.816;2023-04-09T00:31:00;8.30;99.90
22765;DHT22;11549;50.852;3.816;2023-04-09T00:33:29;8.20;99.90
22765;DHT22;11549;50.852;3.816;2023-04-09T00:35:57;8.20;99.90
22765;DHT22;11549;50.852;3.816;2023-04-09T00:38:26;8.10;99.90
22765;DHT22;11549;50.852;3.816;2023-04-09T00:40:55;8.10;99.90
22765;DHT22;11549;50.852;3.816;2023-04-09T00:43:24;8.10;99.90
22765;DHT22;11549;50.852;3.816;2023-04-09T00:45:53;8.00;99.90
22765;DHT22;11549;50.852;3.816;2023-04-09T00:48:21;8.10;99.90
22765;DHT22;11549;50.852;3.816;2023-04-09T00:50:50;8.00;99.90
22765;DHT22;11549;50.852;3.816;2023-04-09T00:53:19;7.90;99.90
22765;DHT22;11549;50.852;3.816;2023-04-09T00:55:47;7.90;99.90
22765;DHT22;11549;50.852;3.816;2023-04-09T00:58:15;7.90;99.90
22765;DHT22;11549;50.852;3.816;2023-04-09T01:00:45;7.90;99.90
22765;DHT22;11549;50.852;3.816;2023-04-09T01:03:14;7.90;99.90
22765;DHT22;11549;50.852;3.816;2023-04-09T01:05:52;7.90;99.90
22765;DHT22;11549;50.852;3.816;2023-04-09T01:08:30;7.80;99.90
22765;DHT22;11549;50.852;3.816;2023-04-09T01:11:05;7.80;99.90
22765;DHT22;11549;50.852;3.816;2023-04-09T01:13:44;7.80;99.90
22765;DHT22;11549;50.852;3.816;2023-04-09T01:16:17;7.80;99.90
22765;DHT22;11549;50.852;3.816;2023-04-09T01:18:50;7.60;99.90
22765;DHT22;11549;50.852;3.816;2023-04-09T01:21:24;7.60;99.90
22765;DHT22;11549;50.852;3.816;2023-04-09T01:23:55;7.60;99.90
22765;DHT22;11549;50.852;3.816;2023-04-09T01:26:35;7.60;99.90
22765;DHT22;11549;50.852;3.816;2023-04-09T01:29:07;7.60;99.90
22765;DHT22;11549;50.852;3.816;2023-04-09T01:31:38;7.60;99.90
22765;DHT22;11549;50.852;3.816;2023-04-09T01:34:09;7.60;99.90
22765;DHT22;11549;50.852;3.816;2023-04-09T01:36:39;7.60;99.90
22765;DHT22;11549;50.852;3.816;2023-04-09T01:39:07;7.60;99.90
22765;DHT22;11549;50.852;3.816;2023-04-09T01:41:37;7.50;99.90
22765;DHT22;11549;50.852;3.816;2023-04-09T01:44:08;7.40;99.90
22765;DHT22;11549;50.852;3.816;2023-04-09T01:46:38;7.30;99.90
22765;DHT22;11549;50.852;3.816;2023-04-09T01:49:08;7.30;99.90
22765;DHT22;11549;50.852;3.816;2023-04-09T01:51:37;7.20;99.90
22765;DHT22;11549;50.852;3.816;2023-04-09T01:54:06;7.10;99.90
22765;DHT22;11549;50.852;3.816;2023-04-09T01:56:42;7.00;99.90
22765;DHT22;11549;50.852;3.816;2023-04-09T01:59:13;7.00;99.90
22765;DHT22;11549;50.852;3.816;2023-04-09T02:01:44;7.10;99.90
22765;DHT22;11549;50.852;3.816;2023-04-09T02:04:19;7.00;99.90
22765;DHT22;11549;50.852;3.816;2023-04-09T02:06:54;7.00;99.90
22765;DHT22;11549;50.852;3.816;2023-04-09T02:09:28;7.00;99.90
22765;DHT22;11549;50.852;3.816;2023-04-09T02:11:58;7.10;99.90
22765;DHT22;11549;50.852;3.816;2023-04-09T02:14:31;7.10;99.90
22765;DHT22;11549;50.852;3.816;2023-04-09T02:17:00;7.20;99.90
22765;DHT22;11549;50.852;3.816;2023-04-09T02:19:38;7.20;99.90
22765;DHT22;11549;50.852;3.816;2023-04-09T02:22:06;7.20;99.90
22765;DHT22;11549;50.852;3.816;2023-04-09T02:24:35;7.30;99.90
22765;DHT22;11549;50.852;3.816;2023-04-09T02:27:04;7.20;99.90
22765;DHT22;11549;50.852;3.816;2023-04-09T02:29:34;7.20;99.90
22765;DHT22;11549;50.852;3.816;2023-04-09T02:32:02;7.20;99.90
22765;DHT22;11549;50.852;3.816;2023-04-09T02:34:30;7.10;99.90
22765;DHT22;11549;50.852;3.816;2023-04-09T02:36:59;7.00;99.90
22765;DHT22;11549;50.852;3.816;2023-04-09T02:39:27;7.10;99.90
22765;DHT22;11549;50.852;3.816;2023-04-09T02:41:55;7.20;99.90
22765;DHT22;11549;50.852;3.816;2023-04-09T02:44:24;7.20;99.90
22765;DHT22;11549;50.852;3.816;2023-04-09T02:46:55;7.20;99.90
22765;DHT22;11549;50.852;3.816;2023-04-09T02:49:23;7.20;99.90
22765;DHT22;11549;50.852;3.816;2023-04-09T02:51:52;7.30;99.90
22765;DHT22;11549;50.852;3.816;2023-04-09T02:54:20;7.30;99.90
22765;DHT22;11549;50.852;3.816;2023-04-09T02:56:48;7.40;99.90
22765;DHT22;11549;50.852;3.816;2023-04-09T02:59:17;7.30;99.90
22765;DHT22;11549;50.852;3.816;2023-04-09T03:01:45;7.20;99.90
22765;DHT22;11549;50.852;3.816;2023-04-09T03:04:15;7.20;99.90
22765;DHT22;11549;50.852;3.816;2023-04-09T03:06:43;7.20;99.90
22765;DHT22;11549;50.852;3.816;2023-04-09T03:09:11;7.10;99.90
22765;DHT22;11549;50.852;3.816;2023-04-09T03:11:40;7.10;99.90
22765;DHT22;11549;50.852;3.816;2023-04-09T03:14:08;7.10;99.90
22765;DHT22;11549;50.852;3.816;2023-04-09T03:16:36;7.10;99.90
22765;DHT22;11549;50.852;3.816;2023-04-09T03:19:05;7.10;99.90
22765;DHT22;11549;50.852;3.816;2023-04-09T03:21:34;7.10;99.90
22765;DHT22;11549;50.852;3.816;2023-04-09T03:24:03;7.00;99.90
22765;DHT22;11549;50.852;3.816;2023-04-09T03:26:31;6.90;99.90
22765;DHT22;11549;50.852;3.816;2023-04-09T03:29:02;6.90;99.90
22765;DHT22;11549;50.852;3.816;2023-04-09T03:31:30;6.90;99.90
22765;DHT22;11549;50.852;3.816;2023-04-09T03:33:59;6.90;99.90
22765;DHT22;11549;50.852;3.816;2023-04-09T03:36:27;6.90;99.90
22765;DHT22;11549;50.852;3.816;2023-04-09T03:38:57;6.90;99.90
22765;DHT22;11549;50.852;3.816;2023-04-09T03:41:26;6.90;99.90
22765;DHT22;11549;50.852;3.816;2023-04-09T03:43:55;6.80;99.90
22765;DHT22;11549;50.852;3.816;2023-04-09T03:46:23;6.90;99.90
22765;DHT22;11549;50.852;3.816;2023-04-09T03:48:52;6.90;99.90
22765;DHT22;11549;50.852;3.816;2023-04-09T03:51:20;6.80;99.90
22765;DHT22;11549;50.852;3.816;2023-04-09T03:53:48;6.80;99.90
22765;DHT22;11549;50.852;3.816;2023-04-09T03:56:18;6.80;99.90
22765;DHT22;11549;50.852;3.816;2023-04-09T03:58:47;6.80;99.90
22765;DHT22;11549;50.852;3.816;2023-04-09T04:01:15;6.80;99.90
22765;DHT22;11549;50.852;3.816;2023-04-09T04:03:43;6.80;99.90
22765;DHT22;11549;50.852;3.816;2023-04-09T04:06:12;6.80;99.90
22765;DHT22;11549;50.852;3.816;2023-04-09T04:08:40;6.80;99.90
22765;DHT22;11549;50.852;3.816;2023-04-09T04:11:10;6.80;99.90
22765;DHT22;11549;50.852;3.816;2023-04-09T04:13:40;6.80;99.90
22765;DHT22;11549;50.852;3.816;2023-04-09T04:16:09;6.80;99.90
22765;DHT22;11549;50.852;3.816;2023-04-09T04:18:37;6.80;99.90
22765;DHT22;11549;50.852;3.816;2023-04-09T04:21:11;6.80;99.90
22765;DHT22;11549;50.852;3.816;2023-04-09T04:23:40;6.80;99.90
22765;DHT22;11549;50.852;3.816;2023-04-09T04:26:09;6.80;99.90
22765;DHT22;11549;50.852;3.816;2023-04-09T04:28:38;6.90;99.90
22765;DHT22;11549;50.852;3.816;2023-04-09T04:31:08;6.80;99.90
22765;DHT22;11549;50.852;3.816;2023-04-09T04:33:39;6.80;99.90
22765;DHT22;11549;50.852;3.816;2023-04-09T04:36:08;6.90;99.90
22765;DHT22;11549;50.852;3.816;2023-04-09T04:38:38;6.90;99.90
22765;DHT22;11549;50.852;3.816;2023-04-09T04:41:09;6.80;99.90
22765;DHT22;11549;50.852;3.816;2023-04-09T04:43:38;6.70;99.90
22765;DHT22;11549;50.852;3.816;2023-04-09T04:46:08;6.70;99.90
22765;DHT22;11549;50.852;3.816;2023-04-09T04:48:37;6.70;99.90
22765;DHT22;11549;50.852;3.816;2023-04-09T04:51:05;6.70;99.90
22765;DHT22;11549;50.852;3.816;2023-04-09T04:53:33;6.70;99.90
22765;DHT22;11549;50.852;3.816;2023-04-09T04:56:02;6.80;99.90
22765;DHT22;11549;50.852;3.816;2023-04-09T04:58:30;6.80;99.90
22765;DHT22;11549;50.852;3.816;2023-04-09T05:00:58;6.80;99.90
22765;DHT22;11549;50.852;3.816;2023-04-09T05:03:28;6.90;99.90
22765;DHT22;11549;50.852;3.816;2023-04-09T05:05:57;6.90;99.90
22765;DHT22;11549;50.852;3.816;2023-04-09T05:08:25;6.90;99.90
22765;DHT22;11549;50.852;3.816;2023-04-09T05:10:54;6.90;99.90
22765;DHT22;11549;50.852;3.816;2023-04-09T05:13:22;6.90;99.90
22765;DHT22;11549;50.852;3.816;2023-04-09T05:15:51;6.90;99.90
22765;DHT22;11549;50.852;3.816;2023-04-09T05:18:19;6.90;99.90
22765;DHT22;11549;50.852;3.816;2023-04-09T05:20:49;7.00;99.90
22765;DHT22;11549;50.852;3.816;2023-04-09T05:23:17;6.90;99.90
22765;DHT22;11549;50.852;3.816;2023-04-09T05:25:47;6.90;99.90
22765;DHT22;11549;50.852;3.816;2023-04-09T05:28:15;6.90;99.90
22765;DHT22;11549;50.852;3.816;2023-04-09T05:30:45;6.90;99.90
22765;DHT22;11549;50.852;3.816;2023-04-09T05:33:14;6.90;99.90
22765;DHT22;11549;50.852;3.816;2023-04-09T05:35:42;6.90;99.90
22765;DHT22;11549;50.852;3.816;2023-04-09T05:38:12;7.00;99.90
22765;DHT22;11549;50.852;3.816;2023-04-09T05:40:40;7.20;99.90
22765;DHT22;11549;50.852;3.816;2023-04-09T05:43:10;7.50;99.90
22765;DHT22;11549;50.852;3.816;2023-04-09T05:45:39;7.80;99.90
22765;DHT22;11549;50.852;3.816;2023-04-09T05:48:07;8.10;99.90
22765;DHT22;11549;50.852;3.816;2023-04-09T05:50:35;8.40;99.90
22765;DHT22;11549;50.852;3.816;2023-04-09T05:53:22;8.80;99.90
22765;DHT22;11549;50.852;3.816;2023-04-09T05:55:50;9.30;99.90
22765;DHT22;11549;50.852;3.816;2023-04-09T05:58:19;9.60;99.90
22765;DHT22;11549;50.852;3.816;2023-04-09T06:00:47;9.90;99.90
22765;DHT22;11549;50.852;3.816;2023-04-09T06:03:17;10.00;99.90
22765;DHT22;11549;50.852;3.816;2023-04-09T06:05:46;10.00;99.90
22765;DHT22;11549;50.852;3.816;2023-04-09T06:08:14;9.80;99.90
22765;DHT22;11549;50.852;3.816;2023-04-09T06:10:44;9.60;99.90
22765;DHT22;11549;50.852;3.816;2023-04-09T06:13:12;9.70;99.90
22765;DHT22;11549;50.852;3.816;2023-04-09T06:15:40;9.90;99.90
22765;DHT22;11549;50.852;3.816;2023-04-09T06:18:09;10.00;99.90
22765;DHT22;11549;50.852;3.816;2023-04-09T06:20:37;10.10;99.90
22765;DHT22;11549;50.852;3.816;2023-04-09T06:23:05;10.30;99.90
22765;DHT22;11549;50.852;3.816;2023-04-09T06:25:34;10.50;99.90
22765;DHT22;11549;50.852;3.816;2023-04-09T06:28:04;10.80;99.90
22765;DHT22;11549;50.852;3.816;2023-04-09T06:30:32;11.00;99.90
22765;DHT22;11549;50.852;3.816;2023-04-09T06:33:03;11.20;99.90
22765;DHT22;11549;50.852;3.816;2023-04-09T06:35:31;11.20;99.90
22765;DHT22;11549;50.852;3.816;2023-04-09T06:37:59;11.50;99.90
22765;DHT22;11549;50.852;3.816;2023-04-09T06:40:28;11.90;99.90
22765;DHT22;11549;50.852;3.816;2023-04-09T06:42:57;12.30;99.90
22765;DHT22;11549;50.852;3.816;2023-04-09T06:45:26;12.80;99.90
22765;DHT22;11549;50.852;3.816;2023-04-09T06:47:55;13.30;99.90
22765;DHT22;11549;50.852;3.816;2023-04-09T06:50:23;13.60;99.90
22765;DHT22;11549;50.852;3.816;2023-04-09T06:52:51;13.80;99.90
22765;DHT22;11549;50.852;3.816;2023-04-09T06:55:20;13.80;99.90
22765;DHT22;11549;50.852;3.816;2023-04-09T06:57:48;13.90;99.90
22765;DHT22;11549;50.852;3.816;2023-04-09T07:00:17;14.00;99.90
22765;DHT22;11549;50.852;3.816;2023-04-09T07:02:47;14.00;99.90
22765;DHT22;11549;50.852;3.816;2023-04-09T07:05:15;13.80;99.90
22765;DHT22;11549;50.852;3.816;2023-04-09T07:07:44;14.00;99.90
22765;DHT22;11549;50.852;3.816;2023-04-09T07:10:12;14.10;99.90
22765;DHT22;11549;50.852;3.816;2023-04-09T07:12:40;14.30;99.90
22765;DHT22;11549;50.852;3.816;2023-04-09T07:15:09;14.40;99.90
22765;DHT22;11549;50.852;3.816;2023-04-09T07:17:38;14.50;99.90
22765;DHT22;11549;50.852;3.816;2023-04-09T07:20:08;14.60;99.90
22765;DHT22;11549;50.852;3.816;2023-04-09T07:22:36;14.70;99.90
22765;DHT22;11549;50.852;3.816;2023-04-09T07:25:06;14.90;99.90
22765;DHT22;11549;50.852;3.816;2023-04-09T07:27:35;15.00;99.90
22765;DHT22;11549;50.852;3.816;2023-04-09T07:30:04;15.20;99.90
22765;DHT22;11549;50.852;3.816;2023-04-09T07:32:32;15.30;99.90
22765;DHT22;11549;50.852;3.816;2023-04-09T07:35:02;15.30;99.90
22765;DHT22;11549;50.852;3.816;2023-04-09T07:37:32;15.40;99.90
22765;DHT22;11549;50.852;3.816;2023-04-09T07:40:01;14.90;99.90
22765;DHT22;11549;50.852;3.816;2023-04-09T07:42:29;15.10;99.90
22765;DHT22;11549;50.852;3.816;2023-04-09T07:44:58;15.10;99.90
22765;DHT22;11549;50.852;3.816;2023-04-09T07:47:26;14.70;99.90
22765;DHT22;11549;50.852;3.816;2023-04-09T07:49:55;14.90;99.90
22765;DHT22;11549;50.852;3.816;2023-04-09T07:52:23;15.10;99.90
22765;DHT22;11549;50.852;3.816;2023-04-09T07:54:53;15.20;99.90
22765;DHT22;11549;50.852;3.816;2023-04-09T07:57:21;15.30;99.90
22765;DHT22;11549;50.852;3.816;2023-04-09T07:59:50;14.80;99.90
22765;DHT22;11549;50.852;3.816;2023-04-09T08:02:18;14.70;99.90
22765;DHT22;11549;50.852;3.816;2023-04-09T08:04:47;14.40;99.90
22765;DHT22;11549;50.852;3.816;2023-04-09T08:07:15;14.20;99.90
22765;DHT22;11549;50.852;3.816;2023-04-09T08:09:43;14.50;99.90
22765;DHT22;11549;50.852;3.816;2023-04-09T08:12:13;15.00;99.90
22765;DHT22;11549;50.852;3.816;2023-04-09T08:14:42;15.40;99.90
22765;DHT22;11549;50.852;3.816;2023-04-09T08:17:10;15.70;99.90
22765;DHT22;11549;50.852;3.816;2023-04-09T08:19:39;15.80;99.90
22765;DHT22;11549;50.852;3.816;2023-04-09T08:22:08;15.90;99.90
22765;DHT22;11549;50.852;3.816;2023-04-09T08:24:36;16.30;99.90
22765;DHT22;11549;50.852;3.816;2023-04-09T08:27:06;16.50;99.90
22765;DHT22;11549;50.852;3.816;2023-04-09T08:29:35;16.80;99.90
22765;DHT22;11549;50.852;3.816;2023-04-09T08:32:05;17.00;99.90
22765;DHT22;11549;50.852;3.816;2023-04-09T08:34:34;17.40;99.90
22765;DHT22;11549;50.852;3.816;2023-04-09T08:37:02;17.70;99.90
22765;DHT22;11549;50.852;3.816;2023-04-09T08:39:30;17.60;99.90
22765;DHT22;11549;50.852;3.816;2023-04-09T08:41:59;17.90;99.90
22765;DHT22;11549;50.852;3.816;2023-04-09T08:44:29;18.20;99.90
22765;DHT22;11549;50.852;3.816;2023-04-09T08:46:59;18.40;99.90
22765;DHT22;11549;50.852;3.816;2023-04-09T08:49:27;18.20;99.90
22765;DHT22;11549;50.852;3.816;2023-04-09T08:51:56;18.30;99.90
22765;DHT22;11549;50.852;3.816;2023-04-09T08:54:24;18.20;99.90
22765;DHT22;11549;50.852;3.816;2023-04-09T08:56:52;18.10;99.90
22765;DHT22;11549;50.852;3.816;2023-04-09T08:59:22;18.20;99.90
22765;DHT22;11549;50.852;3.816;2023-04-09T09:02:07;18.40;99.90
22765;DHT22;11549;50.852;3.816;2023-04-09T09:04:45;18.90;99.90
22765;DHT22;11549;50.852;3.816;2023-04-09T09:07:15;19.30;99.90
22765;DHT22;11549;50.852;3.816;2023-04-09T09:09:51;19.60;99.90
22765;DHT22;11549;50.852;3.816;2023-04-09T09:12:31;19.80;99.90
22765;DHT22;11549;50.852;3.816;2023-04-09T09:14:59;20.00;99.90
22765;DHT22;11549;50.852;3.816;2023-04-09T09:17:29;19.80;99.90
22765;DHT22;11549;50.852;3.816;2023-04-09T09:19:57;20.00;99.90
22765;DHT22;11549;50.852;3.816;2023-04-09T09:22:26;19.80;99.90
22765;DHT22;11549;50.852;3.816;2023-04-09T09:24:54;19.90;99.90
22765;DHT22;11549;50.852;3.816;2023-04-09T09:27:34;20.00;99.90
22765;DHT22;11549;50.852;3.816;2023-04-09T09:30:06;20.20;99.90
22765;DHT22;11549;50.852;3.816;2023-04-09T09:32:37;20.40;99.90
22765;DHT22;11549;50.852;3.816;2023-04-09T09:35:07;20.40;99.90
22765;DHT22;11549;50.852;3.816;2023-04-09T09:37:36;20.40;99.90
22765;DHT22;11549;50.852;3.816;2023-04-09T09:40:05;20.50;99.90
22765;DHT22;11549;50.852;3.816;2023-04-09T09:42:34;20.80;99.90
22765;DHT22;11549;50.852;3.816;2023-04-09T09:45:16;21.10;99.20
22765;DHT22;11549;50.852;3.816;2023-04-09T09:47:47;21.30;99.90
22765;DHT22;11549;50.852;3.816;2023-04-09T09:50:15;21.30;98.70
22765;DHT22;11549;50.852;3.816;2023-04-09T09:52:45;21.40;97.40
22765;DHT22;11549;50.852;3.816;2023-04-09T09:55:13;21.50;98.50
22765;DHT22;11549;50.852;3.816;2023-04-09T09:57:44;21.50;97.10
22765;DHT22;11549;50.852;3.816;2023-04-09T10:00:14;21.10;97.10
22765;DHT22;11549;50.852;3.816;2023-04-09T10:02:52;20.90;97.50
22765;DHT22;11549;50.852;3.816;2023-04-09T10:05:21;20.50;99.20
22765;DHT22;11549;50.852;3.816;2023-04-09T10:07:53;20.70;99.70
22765;DHT22;11549;50.852;3.816;2023-04-09T10:10:23;20.80;99.40
22765;DHT22;11549;50.852;3.816;2023-04-09T10:12:51;20.60;97.90
22765;DHT22;11549;50.852;3.816;2023-04-09T10:15:20;20.30;97.10
22765;DHT22;11549;50.852;3.816;2023-04-09T10:17:50;19.90;97.50
22765;DHT22;11549;50.852;3.816;2023-04-09T10:20:23;19.60;96.90
22765;DHT22;11549;50.852;3.816;2023-04-09T10:22:53;20.00;99.90
22765;DHT22;11549;50.852;3.816;2023-04-09T10:25:21;20.20;99.90
22765;DHT22;11549;50.852;3.816;2023-04-09T10:27:58;20.00;97.90
22765;DHT22;11549;50.852;3.816;2023-04-09T10:30:33;20.30;97.20
22765;DHT22;11549;50.852;3.816;2023-04-09T10:33:13;20.10;96.60
22765;DHT22;11549;50.852;3.816;2023-04-09T10:35:45;20.20;98.60
22765;DHT22;11549;50.852;3.816;2023-04-09T10:38:14;20.40;99.90
22765;DHT22;11549;50.852;3.816;2023-04-09T10:40:46;20.90;99.90
22765;DHT22;11549;50.852;3.816;2023-04-09T10:43:18;21.10;97.80
22765;DHT22;11549;50.852;3.816;2023-04-09T10:45:48;21.30;96.40
22765;DHT22;11549;50.852;3.816;2023-04-09T10:48:20;21.60;98.00
22765;DHT22;11549;50.852;3.816;2023-04-09T10:50:52;21.40;94.40
22765;DHT22;11549;50.852;3.816;2023-04-09T10:53:21;21.60;96.30
22765;DHT22;11549;50.852;3.816;2023-04-09T10:55:52;21.80;96.00
22765;DHT22;11549;50.852;3.816;2023-04-09T10:58:21;21.80;97.20
22765;DHT22;11549;50.852;3.816;2023-04-09T11:00:50;22.00;95.40
22765;DHT22;11549;50.852;3.816;2023-04-09T11:03:21;21.80;93.80
22765;DHT22;11549;50.852;3.816;2023-04-09T11:05:53;21.80;95.70
22765;DHT22;11549;50.852;3.816;2023-04-09T11:08:22;22.00;95.00
22765;DHT22;11549;50.852;3.816;2023-04-09T11:10:50;22.20;93.10
22765;DHT22;11549;50.852;3.816;2023-04-09T11:13:23;22.40;93.90
22765;DHT22;11549;50.852;3.816;2023-04-09T11:15:53;22.30;90.20
22765;DHT22;11549;50.852;3.816;2023-04-09T11:18:25;21.80;90.80
22765;DHT22;11549;50.852;3.816;2023-04-09T11:20:54;21.80;91.80
22765;DHT22;11549;50.852;3.816;2023-04-09T11:23:23;22.00;92.50
22765;DHT22;11549;50.852;3.816;2023-04-09T11:25:52;22.00;90.80
22765;DHT22;11549;50.852;3.816;2023-04-09T11:28:22;22.20;94.80
22765;DHT22;11549;50.852;3.816;2023-04-09T11:30:51;21.80;91.20
22765;DHT22;11549;50.852;3.816;2023-04-09T11:33:19;21.10;93.80
22765;DHT22;11549;50.852;3.816;2023-04-09T11:35:50;20.60;91.70
22765;DHT22;11549;50.852;3.816;2023-04-09T11:38:18;20.30;96.20
22765;DHT22;11549;50.852;3.816;2023-04-09T11:40:46;20.60;95.10
22765;DHT22;11549;50.852;3.816;2023-04-09T11:43:16;20.90;95.30
22765;DHT22;11549;50.852;3.816;2023-04-09T11:45:46;21.20;93.40
22765;DHT22;11549;50.852;3.816;2023-04-09T11:48:15;21.40;92.90
22765;DHT22;11549;50.852;3.816;2023-04-09T11:50:45;21.20;92.00
22765;DHT22;11549;50.852;3.816;2023-04-09T11:53:19;21.10;93.70
22765;DHT22;11549;50.852;3.816;2023-04-09T11:55:49;20.80;94.00
22765;DHT22;11549;50.852;3.816;2023-04-09T11:58:21;20.60;94.00
22765;DHT22;11549;50.852;3.816;2023-04-09T12:00:52;20.20;95.90
22765;DHT22;11549;50.852;3.816;2023-04-09T12:03:27;20.10;93.70
22765;DHT22;11549;50.852;3.816;2023-04-09T12:05:59;20.30;93.90
22765;DHT22;11549;50.852;3.816;2023-04-09T12:08:30;20.50;93.90
22765;DHT22;11549;50.852;3.816;2023-04-09T12:11:07;21.00;94.00
22765;DHT22;11549;50.852;3.816;2023-04-09T12:13:36;21.50;93.60
22765;DHT22;11549;50.852;3.816;2023-04-09T12:16:09;21.50;92.80
22765;DHT22;11549;50.852;3.816;2023-04-09T12:18:38;21.20;91.60
22765;DHT22;11549;50.852;3.816;2023-04-09T12:21:06;21.30;91.60
22765;DHT22;11549;50.852;3.816;2023-04-09T12:23:37;21.40;91.80
22765;DHT22;11549;50.852;3.816;2023-04-09T12:26:05;21.40;90.40
22765;DHT22;11549;50.852;3.816;2023-04-09T12:28:33;21.60;89.40
22765;DHT22;11549;50.852;3.816;2023-04-09T12:31:01;21.90;90.20
22765;DHT22;11549;50.852;3.816;2023-04-09T12:33:30;21.70;89.50
22765;DHT22;11549;50.852;3.816;2023-04-09T12:35:59;21.90;87.50
22765;DHT22;11549;50.852;3.816;2023-04-09T12:38:28;21.50;91.30
22765;DHT22;11549;50.852;3.816;2023-04-09T12:40:58;21.20;90.00
22765;DHT22;11549;50.852;3.816;2023-04-09T12:43:27;21.00;89.40
22765;DHT22;11549;50.852;3.816;2023-04-09T12:45:55;21.00;91.40
22765;DHT22;11549;50.852;3.816;2023-04-09T12:48:23;21.10;93.10
22765;DHT22;11549;50.852;3.816;2023-04-09T12:50:52;21.50;91.60
22765;DHT22;11549;50.852;3.816;2023-04-09T12:53:20;22.00;90.30
22765;DHT22;11549;50.852;3.816;2023-04-09T12:55:49;22.40;91.60
22765;DHT22;11549;50.852;3.816;2023-04-09T12:58:18;22.70;89.20
22765;DHT22;11549;50.852;3.816;2023-04-09T13:00:47;22.80;84.70
22765;DHT22;11549;50.852;3.816;2023-04-09T13:03:15;22.70;86.60
22765;DHT22;11549;50.852;3.816;2023-04-09T13:05:44;22.50;83.10
22765;DHT22;11549;50.852;3.816;2023-04-09T13:08:13;22.20;85.00
22765;DHT22;11549;50.852;3.816;2023-04-09T13:10:42;21.60;85.90
22765;DHT22;11549;50.852;3.816;2023-04-09T13:13:10;21.20;88.00
22765;DHT22;11549;50.852;3.816;2023-04-09T13:15:41;21.20;93.40
22765;DHT22;11549;50.852;3.816;2023-04-09T13:18:11;21.30;89.90
22765;DHT22;11549;50.852;3.816;2023-04-09T13:20:39;21.50;86.30
22765;DHT22;11549;50.852;3.816;2023-04-09T13:23:08;21.20;88.10
22765;DHT22;11549;50.852;3.816;2023-04-09T13:25:36;20.70;91.80
22765;DHT22;11549;50.852;3.816;2023-04-09T13:28:04;20.60;91.90
22765;DHT22;11549;50.852;3.816;2023-04-09T13:30:32;20.30;91.40
22765;DHT22;11549;50.852;3.816;2023-04-09T13:33:03;20.50;94.20
22765;DHT22;11549;50.852;3.816;2023-04-09T13:35:31;20.80;90.20
22765;DHT22;11549;50.852;3.816;2023-04-09T13:37:59;20.80;92.30
22765;DHT22;11549;50.852;3.816;2023-04-09T13:40:28;21.00;91.30
22765;DHT22;11549;50.852;3.816;2023-04-09T13:42:56;21.30;91.30
22765;DHT22;11549;50.852;3.816;2023-04-09T13:45:24;21.70;88.10
22765;DHT22;11549;50.852;3.816;2023-04-09T13:47:53;21.90;91.20
22765;DHT22;11549;50.852;3.816;2023-04-09T13:50:23;22.20;88.40
22765;DHT22;11549;50.852;3.816;2023-04-09T13:52:51;22.20;89.90
22765;DHT22;11549;50.852;3.816;2023-04-09T13:55:19;22.20;88.50
22765;DHT22;11549;50.852;3.816;2023-04-09T13:57:48;21.70;87.80
22765;DHT22;11549;50.852;3.816;2023-04-09T14:00:16;21.80;83.90
22765;DHT22;11549;50.852;3.816;2023-04-09T14:02:45;21.70;86.90
22765;DHT22;11549;50.852;3.816;2023-04-09T14:05:14;21.70;90.60
22765;DHT22;11549;50.852;3.816;2023-04-09T14:07:43;21.70;87.50
22765;DHT22;11549;50.852;3.816;2023-04-09T14:10:12;21.60;86.50
22765;DHT22;11549;50.852;3.816;2023-04-09T14:12:40;21.10;87.00
22765;DHT22;11549;50.852;3.816;2023-04-09T14:15:09;21.30;87.60
22765;DHT22;11549;50.852;3.816;2023-04-09T14:17:38;21.20;89.30
22765;DHT22;11549;50.852;3.816;2023-04-09T14:20:07;20.50;90.90
22765;DHT22;11549;50.852;3.816;2023-04-09T14:22:36;20.10;94.00
22765;DHT22;11549;50.852;3.816;2023-04-09T14:25:07;19.90;93.10
22765;DHT22;11549;50.852;3.816;2023-04-09T14:27:35;19.50;94.60
22765;DHT22;11549;50.852;3.816;2023-04-09T14:30:06;19.20;94.60
22765;DHT22;11549;50.852;3.816;2023-04-09T14:32:34;19.40;96.80
22765;DHT22;11549;50.852;3.816;2023-04-09T14:35:03;19.60;96.10
22765;DHT22;11549;50.852;3.816;2023-04-09T14:37:31;19.40;95.30
22765;DHT22;11549;50.852;3.816;2023-04-09T14:39:59;19.50;95.90
22765;DHT22;11549;50.852;3.816;2023-04-09T14:42:29;19.50;97.30
22765;DHT22;11549;50.852;3.816;2023-04-09T14:45:00;19.70;98.40
22765;DHT22;11549;50.852;3.816;2023-04-09T14:47:29;20.00;95.60
22765;DHT22;11549;50.852;3.816;2023-04-09T14:49:57;20.00;93.90
22765;DHT22;11549;50.852;3.816;2023-04-09T14:52:25;19.40;95.40
22765;DHT22;11549;50.852;3.816;2023-04-09T14:54:56;19.50;95.80
22765;DHT22;11549;50.852;3.816;2023-04-09T14:57:24;19.20;96.30
22765;DHT22;11549;50.852;3.816;2023-04-09T14:59:54;18.90;97.00
22765;DHT22;11549;50.852;3.816;2023-04-09T15:02:22;18.60;96.60
22765;DHT22;11549;50.852;3.816;2023-04-09T15:04:51;18.70;96.90
22765;DHT22;11549;50.852;3.816;2023-04-09T15:07:20;18.60;99.20
22765;DHT22;11549;50.852;3.816;2023-04-09T15:09:51;18.70;98.50
22765;DHT22;11549;50.852;3.816;2023-04-09T15:12:19;18.60;98.00
22765;DHT22;11549;50.852;3.816;2023-04-09T15:14:47;18.60;99.70
22765;DHT22;11549;50.852;3.816;2023-04-09T15:17:17;18.40;98.00
22765;DHT22;11549;50.852;3.816;2023-04-09T15:19:45;18.30;98.80
22765;DHT22;11549;50.852;3.816;2023-04-09T15:22:15;18.50;98.50
22765;DHT22;11549;50.852;3.816;2023-04-09T15:24:43;18.30;99.00
22765;DHT22;11549;50.852;3.816;2023-04-09T15:27:11;18.40;98.90
22765;DHT22;11549;50.852;3.816;2023-04-09T15:29:40;18.60;99.10
22765;DHT22;11549;50.852;3.816;2023-04-09T15:32:09;18.80;99.30
22765;DHT22;11549;50.852;3.816;2023-04-09T15:34:38;18.60;98.30
22765;DHT22;11549;50.852;3.816;2023-04-09T15:37:07;18.60;97.70
22765;DHT22;11549;50.852;3.816;2023-04-09T15:39:35;18.50;99.40
22765;DHT22;11549;50.852;3.816;2023-04-09T15:42:03;18.10;99.20
22765;DHT22;11549;50.852;3.816;2023-04-09T15:44:35;18.00;99.90
22765;DHT22;11549;50.852;3.816;2023-04-09T15:47:04;18.00;99.90
22765;DHT22;11549;50.852;3.816;2023-04-09T15:49:33;18.20;99.90
22765;DHT22;11549;50.852;3.816;2023-04-09T15:52:04;18.30;99.90